sensor_id;sensor_type;location;lat;lon;timestamp;pressure;altitude;pressure_sealevel;temperature;humidity
51468;BME280;37545;45.302;-122.946;2023-08-30T00:01:17;101368.00;;;24.21;50.41
51468;BME280;37545;45.302;-122.946;2023-08-30T00:03:47;101359.09;;;24.28;50.61
51468;BME280;37545;45.302;-122.946;2023-08-30T00:06:15;101353.19;;;24.12;50.67
51468;BME280;37545;45.302;-122.946;2023-08-30T00:08:45;101357.63;;;24.10;50.33
51468;BME280;37545;45.302;-122.946;2023-08-30T00:11:16;101350.66;;;24.06;50.54
51468;BME280;37545;45.302;-122.946;2023-08-30T00:13:45;101346.31;;;24.02;49.53
51468;BME280;37545;45.302;-122.946;2023-08-30T00:16:14;101353.22;;;24.09;49.96
51468;BME280;37545;45.302;-122.946;2023-08-30T00:18:43;101350.50;;;24.14;48.40
51468;BME280;37545;45.302;-122.946;2023-08-30T00:21:14;101355.75;;;24.17;47.67
51468;BME280;37545;45.302;-122.946;2023-08-30T00:23:43;101353.94;;;24.19;48.32
51468;BME280;37545;45.302;-122.946;2023-08-30T00:26:11;101357.44;;;24.21;49.08
51468;BME280;37545;45.302;-122.946;2023-08-30T00:28:39;101362.69;;;24.22;49.90
51468;BME280;37545;45.302;-122.946;2023-08-30T00:31:08;101350.50;;;24.14;50.50
51468;BME280;37545;45.302;-122.946;2023-08-30T00:33:37;101365.28;;;24.25;50.10
51468;BME280;37545;45.302;-122.946;2023-08-30T00:36:07;101367.09;;;24.23;50.25
51468;BME280;37545;45.302;-122.946;2023-08-30T00:38:37;101362.69;;;24.24;50.43
51468;BME280;37545;45.302;-122.946;2023-08-30T00:41:06;101355.56;;;24.28;49.51
51468;BME280;37545;45.302;-122.946;2023-08-30T00:43:34;101363.47;;;24.29;46.49
51468;BME280;37545;45.302;-122.946;2023-08-30T00:46:03;101360.81;;;24.29;44.76
51468;BME280;37545;45.302;-122.946;2023-08-30T00:48:32;101360.72;;;24.35;45.02
51468;BME280;37545;45.302;-122.946;2023-08-30T00:51:00;101352.63;;;24.43;44.68
51468;BME280;37545;45.302;-122.946;2023-08-30T00:53:29;101349.69;;;24.61;44.49
51468;BME280;37545;45.302;-122.946;2023-08-30T00:56:00;101342.31;;;24.77;44.35
51468;BME280;37545;45.302;-122.946;2023-08-30T00:58:29;101338.47;;;24.92;43.68
51468;BME280;37545;45.302;-122.946;2023-08-30T01:00:58;101336.50;;;25.02;43.53
51468;BME280;37545;45.302;-122.946;2023-08-30T01:03:27;101341.63;;;25.11;43.19
51468;BME280;37545;45.302;-122.946;2023-08-30T01:05:56;101340.66;;;25.15;43.28
51468;BME280;37545;45.302;-122.946;2023-08-30T01:08:25;101339.69;;;25.19;42.93
51468;BME280;37545;45.302;-122.946;2023-08-30T01:11:02;101345.03;;;25.15;42.38
51468;BME280;37545;45.302;-122.946;2023-08-30T01:13:36;101342.47;;;25.12;43.00
51468;BME280;37545;45.302;-122.946;2023-08-30T01:16:08;101337.09;;;25.15;42.89
51468;BME280;37545;45.302;-122.946;2023-08-30T01:18:38;101344.94;;;25.21;42.89
51468;BME280;37545;45.302;-122.946;2023-08-30T01:21:14;101342.31;;;25.21;42.35
51468;BME280;37545;45.302;-122.946;2023-08-30T01:23:49;101343.16;;;25.21;42.36
51468;BME280;37545;45.302;-122.946;2023-08-30T01:26:34;101348.53;;;25.18;42.56
51468;BME280;37545;45.302;-122.946;2023-08-30T01:29:14;101347.66;;;25.16;42.31
51468;BME280;37545;45.302;-122.946;2023-08-30T01:31:46;101347.75;;;25.13;42.71
51468;BME280;37545;45.302;-122.946;2023-08-30T01:34:16;101349.56;;;25.09;42.77
51468;BME280;37545;45.302;-122.946;2023-08-30T01:36:45;101350.41;;;25.13;42.31
51468;BME280;37545;45.302;-122.946;2023-08-30T01:39:14;101353.09;;;25.10;42.27
51468;BME280;37545;45.302;-122.946;2023-08-30T01:41:44;101347.03;;;25.05;42.32
51468;BME280;37545;45.302;-122.946;2023-08-30T01:44:15;101352.31;;;25.05;42.52
51468;BME280;37545;45.302;-122.946;2023-08-30T01:46:47;101347.03;;;25.05;42.56
51468;BME280;37545;45.302;-122.946;2023-08-30T01:49:18;101355.81;;;25.07;42.34
51468;BME280;37545;45.302;-122.946;2023-08-30T01:51:47;101351.38;;;25.07;42.68
51468;BME280;37545;45.302;-122.946;2023-08-30T01:54:18;101353.25;;;25.04;42.13
51468;BME280;37545;45.302;-122.946;2023-08-30T01:56:47;101351.66;;;24.95;42.35
51468;BME280;37545;45.302;-122.946;2023-08-30T01:59:25;101352.78;;;24.83;42.34
51468;BME280;37545;45.302;-122.946;2023-08-30T02:01:53;101350.31;;;24.74;42.74
51468;BME280;37545;45.302;-122.946;2023-08-30T02:04:33;101366.31;;;24.68;43.88
51468;BME280;37545;45.302;-122.946;2023-08-30T02:07:08;101362.91;;;24.61;43.77
51468;BME280;37545;45.302;-122.946;2023-08-30T02:09:47;101364.78;;;24.56;43.53
51468;BME280;37545;45.302;-122.946;2023-08-30T02:12:22;101364.94;;;24.44;43.40
51468;BME280;37545;45.302;-122.946;2023-08-30T02:14:53;101379.19;;;24.37;43.70
51468;BME280;37545;45.302;-122.946;2023-08-30T02:17:23;101382.06;;;24.23;44.09
51468;BME280;37545;45.302;-122.946;2023-08-30T02:19:55;101379.56;;;24.15;44.35
51468;BME280;37545;45.302;-122.946;2023-08-30T02:22:27;101378.81;;;24.09;44.91
51468;BME280;37545;45.302;-122.946;2023-08-30T02:24:55;101380.69;;;24.00;44.55
51468;BME280;37545;45.302;-122.946;2023-08-30T02:27:24;101382.59;;;23.92;44.34
51468;BME280;37545;45.302;-122.946;2023-08-30T02:29:54;101374.03;;;23.78;44.88
51468;BME280;37545;45.302;-122.946;2023-08-30T02:32:33;101382.88;;;23.71;45.42
51468;BME280;37545;45.302;-122.946;2023-08-30T02:35:02;101380.41;;;23.60;45.43
51468;BME280;37545;45.302;-122.946;2023-08-30T02:37:31;101377.03;;;23.50;45.80
51468;BME280;37545;45.302;-122.946;2023-08-30T02:39:58;101380.63;;;23.43;46.54
51468;BME280;37545;45.302;-122.946;2023-08-30T02:42:33;101375.47;;;23.35;46.56
51468;BME280;37545;45.302;-122.946;2023-08-30T02:45:04;101378.25;;;23.25;46.49
51468;BME280;37545;45.302;-122.946;2023-08-30T02:47:33;101388.06;;;23.16;47.27
51468;BME280;37545;45.302;-122.946;2023-08-30T02:50:03;101391.63;;;23.12;47.46
51468;BME280;37545;45.302;-122.946;2023-08-30T02:52:34;101387.25;;;23.08;47.66
51468;BME280;37545;45.302;-122.946;2023-08-30T02:55:03;101397.88;;;23.04;47.89
51468;BME280;37545;45.302;-122.946;2023-08-30T02:57:35;101394.41;;;22.97;47.57
51468;BME280;37545;45.302;-122.946;2023-08-30T03:00:08;101399.81;;;22.85;47.90
51468;BME280;37545;45.302;-122.946;2023-08-30T03:02:37;101410.47;;;22.75;48.57
51468;BME280;37545;45.302;-122.946;2023-08-30T03:05:06;101420.22;;;22.70;48.36
51468;BME280;37545;45.302;-122.946;2023-08-30T03:07:34;101415.84;;;22.66;48.77
51468;BME280;37545;45.302;-122.946;2023-08-30T03:10:03;101415.91;;;22.58;49.26
51468;BME280;37545;45.302;-122.946;2023-08-30T03:12:38;101410.72;;;22.51;49.55
51468;BME280;37545;45.302;-122.946;2023-08-30T03:15:09;101416.94;;;22.45;49.62
51468;BME280;37545;45.302;-122.946;2023-08-30T03:17:37;101419.63;;;22.41;49.76
51468;BME280;37545;45.302;-122.946;2023-08-30T03:20:07;101424.06;;;22.32;50.40
51468;BME280;37545;45.302;-122.946;2023-08-30T03:22:42;101426.78;;;22.23;50.77
51468;BME280;37545;45.302;-122.946;2023-08-30T03:25:10;101425.03;;;22.16;50.70
51468;BME280;37545;45.302;-122.946;2023-08-30T03:27:39;101423.31;;;22.12;51.06
51468;BME280;37545;45.302;-122.946;2023-08-30T03:30:11;101421.63;;;22.05;51.52
51468;BME280;37545;45.302;-122.946;2023-08-30T03:32:41;101427.78;;;22.01;51.34
51468;BME280;37545;45.302;-122.946;2023-08-30T03:35:16;101424.31;;;21.94;51.59
51468;BME280;37545;45.302;-122.946;2023-08-30T03:37:52;101432.22;;;21.94;51.99
51468;BME280;37545;45.302;-122.946;2023-08-30T03:40:23;101432.22;;;21.95;51.66
51468;BME280;37545;45.302;-122.946;2023-08-30T03:42:53;101434.84;;;21.95;52.15
51468;BME280;37545;45.302;-122.946;2023-08-30T03:45:23;101437.50;;;21.95;52.42
51468;BME280;37545;45.302;-122.946;2023-08-30T03:47:51;101444.53;;;21.95;51.72
51468;BME280;37545;45.302;-122.946;2023-08-30T03:50:20;101439.22;;;21.96;51.87
51468;BME280;37545;45.302;-122.946;2023-08-30T03:52:49;101437.50;;;21.95;51.99
51468;BME280;37545;45.302;-122.946;2023-08-30T03:55:17;101452.41;;;21.96;52.48
51468;BME280;37545;45.302;-122.946;2023-08-30T03:57:46;101452.41;;;21.96;52.07
51468;BME280;37545;45.302;-122.946;2023-08-30T04:00:15;101448.91;;;21.96;51.87
51468;BME280;37545;45.302;-122.946;2023-08-30T04:02:45;101455.03;;;21.96;52.48
51468;BME280;37545;45.302;-122.946;2023-08-30T04:05:14;101463.84;;;21.95;51.80
51468;BME280;37545;45.302;-122.946;2023-08-30T04:07:42;101462.97;;;21.95;52.00
51468;BME280;37545;45.302;-122.946;2023-08-30T04:10:11;101462.97;;;21.93;52.43
51468;BME280;37545;45.302;-122.946;2023-08-30T04:12:39;101464.75;;;21.93;52.39
51468;BME280;37545;45.302;-122.946;2023-08-30T04:15:13;101467.38;;;21.91;52.57
51468;BME280;37545;45.302;-122.946;2023-08-30T04:17:41;101471.78;;;21.89;52.45
51468;BME280;37545;45.302;-122.946;2023-08-30T04:20:12;101477.06;;;21.86;52.76
51468;BME280;37545;45.302;-122.946;2023-08-30T04:22:40;101476.19;;;21.84;53.11
51468;BME280;37545;45.302;-122.946;2023-08-30T04:25:12;101469.22;;;21.79;52.77
51468;BME280;37545;45.302;-122.946;2023-08-30T04:27:41;101464.84;;;21.74;52.77
51468;BME280;37545;45.302;-122.946;2023-08-30T04:30:11;101471.88;;;21.71;53.10
51468;BME280;37545;45.302;-122.946;2023-08-30T04:32:40;101478.03;;;21.67;53.32
51468;BME280;37545;45.302;-122.946;2023-08-30T04:35:13;101478.06;;;21.64;53.50
51468;BME280;37545;45.302;-122.946;2023-08-30T04:37:42;101485.13;;;21.60;53.66
51468;BME280;37545;45.302;-122.946;2023-08-30T04:40:11;101489.50;;;21.58;53.95
51468;BME280;37545;45.302;-122.946;2023-08-30T04:42:40;101490.41;;;21.56;54.25
51468;BME280;37545;45.302;-122.946;2023-08-30T04:45:12;101494.78;;;21.52;54.67
51468;BME280;37545;45.302;-122.946;2023-08-30T04:47:40;101492.19;;;21.49;54.28
51468;BME280;37545;45.302;-122.946;2023-08-30T04:50:09;101497.47;;;21.44;54.65
51468;BME280;37545;45.302;-122.946;2023-08-30T04:52:40;101492.19;;;21.38;54.86
51468;BME280;37545;45.302;-122.946;2023-08-30T04:55:09;101494.84;;;21.33;55.50
51468;BME280;37545;45.302;-122.946;2023-08-30T04:57:42;101486.06;;;21.30;55.73
51468;BME280;37545;45.302;-122.946;2023-08-30T05:00:14;101492.25;;;21.18;56.28
51468;BME280;37545;45.302;-122.946;2023-08-30T05:02:43;101488.78;;;21.05;57.70
51468;BME280;37545;45.302;-122.946;2023-08-30T05:05:15;101486.16;;;20.96;58.89
51468;BME280;37545;45.302;-122.946;2023-08-30T05:07:45;101497.56;;;20.86;60.53
51468;BME280;37545;45.302;-122.946;2023-08-30T05:10:14;101485.31;;;20.76;61.15
51468;BME280;37545;45.302;-122.946;2023-08-30T05:12:42;101489.69;;;20.66;61.84
51468;BME280;37545;45.302;-122.946;2023-08-30T05:15:16;101488.84;;;20.59;62.84
51468;BME280;37545;45.302;-122.946;2023-08-30T05:17:46;101494.94;;;20.55;63.30
51468;BME280;37545;45.302;-122.946;2023-08-30T05:20:15;101494.91;;;20.54;63.43
51468;BME280;37545;45.302;-122.946;2023-08-30T05:22:45;101498.41;;;20.49;64.03
51468;BME280;37545;45.302;-122.946;2023-08-30T05:25:14;101501.06;;;20.48;64.45
51468;BME280;37545;45.302;-122.946;2023-08-30T05:27:45;101504.53;;;20.50;64.42
51468;BME280;37545;45.302;-122.946;2023-08-30T05:30:14;101506.31;;;20.54;64.12
51468;BME280;37545;45.302;-122.946;2023-08-30T05:32:43;101497.59;;;20.58;64.78
51468;BME280;37545;45.302;-122.946;2023-08-30T05:35:11;101495.84;;;20.60;64.42
51468;BME280;37545;45.302;-122.946;2023-08-30T05:37:40;101483.56;;;20.62;63.97
51468;BME280;37545;45.302;-122.946;2023-08-30T05:40:11;101493.19;;;20.60;64.11
51468;BME280;37545;45.302;-122.946;2023-08-30T05:42:43;101486.22;;;20.59;64.41
51468;BME280;37545;45.302;-122.946;2023-08-30T05:45:12;101479.16;;;20.55;64.46
51468;BME280;37545;45.302;-122.946;2023-08-30T05:47:40;101476.50;;;20.52;65.08
51468;BME280;37545;45.302;-122.946;2023-08-30T05:50:12;101479.16;;;20.46;65.80
51468;BME280;37545;45.302;-122.946;2023-08-30T05:52:41;101480.03;;;20.39;66.16
51468;BME280;37545;45.302;-122.946;2023-08-30T05:55:12;101487.91;;;20.33;66.48
51468;BME280;37545;45.302;-122.946;2023-08-30T05:57:41;101491.38;;;20.27;66.59
51468;BME280;37545;45.302;-122.946;2023-08-30T06:00:13;101490.50;;;20.17;67.21
51468;BME280;37545;45.302;-122.946;2023-08-30T06:02:42;101495.75;;;20.09;67.81
51468;BME280;37545;45.302;-122.946;2023-08-30T06:05:11;101493.97;;;20.04;68.14
51468;BME280;37545;45.302;-122.946;2023-08-30T06:07:39;101502.75;;;20.00;68.16
51468;BME280;37545;45.302;-122.946;2023-08-30T06:10:19;101512.34;;;19.96;68.52
51468;BME280;37545;45.302;-122.946;2023-08-30T06:12:47;101500.97;;;19.94;68.96
51468;BME280;37545;45.302;-122.946;2023-08-30T06:15:16;101493.97;;;19.88;69.24
51468;BME280;37545;45.302;-122.946;2023-08-30T06:17:44;101507.06;;;19.85;70.17
51468;BME280;37545;45.302;-122.946;2023-08-30T06:20:13;101509.72;;;19.88;69.88
51468;BME280;37545;45.302;-122.946;2023-08-30T06:22:44;101499.22;;;19.88;69.58
51468;BME280;37545;45.302;-122.946;2023-08-30T06:25:13;101506.19;;;19.90;69.59
51468;BME280;37545;45.302;-122.946;2023-08-30T06:27:54;101499.19;;;19.85;70.47
51468;BME280;37545;45.302;-122.946;2023-08-30T06:30:25;101493.91;;;19.78;71.27
51468;BME280;37545;45.302;-122.946;2023-08-30T06:32:54;101497.38;;;19.72;71.38
51468;BME280;37545;45.302;-122.946;2023-08-30T06:35:23;101501.78;;;19.70;71.62
51468;BME280;37545;45.302;-122.946;2023-08-30T06:37:51;101501.72;;;19.67;71.76
51468;BME280;37545;45.302;-122.946;2023-08-30T06:40:21;101499.09;;;19.61;71.73
51468;BME280;37545;45.302;-122.946;2023-08-30T06:42:52;101492.91;;;19.56;72.56
51468;BME280;37545;45.302;-122.946;2023-08-30T06:45:21;101487.66;;;19.51;73.41
51468;BME280;37545;45.302;-122.946;2023-08-30T06:47:49;101500.75;;;19.46;74.24
51468;BME280;37545;45.302;-122.946;2023-08-30T06:50:20;101503.34;;;19.39;74.34
51468;BME280;37545;45.302;-122.946;2023-08-30T06:52:51;101511.19;;;19.31;75.74
51468;BME280;37545;45.302;-122.946;2023-08-30T06:55:20;101519.00;;;19.23;76.32
51468;BME280;37545;45.302;-122.946;2023-08-30T06:57:49;101513.72;;;19.19;75.37
51468;BME280;37545;45.302;-122.946;2023-08-30T07:00:28;101518.06;;;19.17;75.69
51468;BME280;37545;45.302;-122.946;2023-08-30T07:02:57;101513.66;;;19.10;76.04
51468;BME280;37545;45.302;-122.946;2023-08-30T07:05:26;101511.03;;;19.07;76.20
51468;BME280;37545;45.302;-122.946;2023-08-30T07:07:55;101511.03;;;19.03;76.35
51468;BME280;37545;45.302;-122.946;2023-08-30T07:10:23;101508.34;;;19.00;76.98
51468;BME280;37545;45.302;-122.946;2023-08-30T07:12:52;101512.72;;;19.00;77.27
51468;BME280;37545;45.302;-122.946;2023-08-30T07:15:22;101512.72;;;19.00;77.48
51468;BME280;37545;45.302;-122.946;2023-08-30T07:17:51;101502.22;;;18.98;78.00
51468;BME280;37545;45.302;-122.946;2023-08-30T07:20:19;101509.19;;;18.90;78.91
51468;BME280;37545;45.302;-122.946;2023-08-30T07:22:56;101506.47;;;18.79;79.64
51468;BME280;37545;45.302;-122.946;2023-08-30T07:25:25;101501.16;;;18.72;80.39
51468;BME280;37545;45.302;-122.946;2023-08-30T07:27:54;101502.84;;;18.65;80.43
51468;BME280;37545;45.302;-122.946;2023-08-30T07:30:24;101495.81;;;18.62;80.55
51468;BME280;37545;45.302;-122.946;2023-08-30T07:32:52;101508.94;;;18.64;80.65
51468;BME280;37545;45.302;-122.946;2023-08-30T07:35:21;101505.41;;;18.60;81.19
51468;BME280;37545;45.302;-122.946;2023-08-30T07:37:49;101494.88;;;18.54;81.59
51468;BME280;37545;45.302;-122.946;2023-08-30T07:40:18;101506.22;;;18.52;81.67
51468;BME280;37545;45.302;-122.946;2023-08-30T07:42:47;101504.44;;;18.51;82.22
51468;BME280;37545;45.302;-122.946;2023-08-30T07:45:18;101503.56;;;18.50;81.34
51468;BME280;37545;45.302;-122.946;2023-08-30T07:47:48;101494.84;;;18.51;81.56
51468;BME280;37545;45.302;-122.946;2023-08-30T07:50:17;101496.59;;;18.52;81.62
51468;BME280;37545;45.302;-122.946;2023-08-30T07:52:46;101500.06;;;18.50;81.39
51468;BME280;37545;45.302;-122.946;2023-08-30T07:55:14;101487.78;;;18.42;81.07
51468;BME280;37545;45.302;-122.946;2023-08-30T07:57:45;101500.06;;;18.47;81.37
51468;BME280;37545;45.302;-122.946;2023-08-30T08:00:14;101507.00;;;18.43;81.00
51468;BME280;37545;45.302;-122.946;2023-08-30T08:02:43;101503.44;;;18.35;82.49
51468;BME280;37545;45.302;-122.946;2023-08-30T08:05:13;101507.72;;;18.27;82.63
51468;BME280;37545;45.302;-122.946;2023-08-30T08:07:45;101506.81;;;18.23;82.49
51468;BME280;37545;45.302;-122.946;2023-08-30T08:10:13;101503.28;;;18.16;85.05
51468;BME280;37545;45.302;-122.946;2023-08-30T08:12:42;101498.75;;;18.05;85.94
51468;BME280;37545;45.302;-122.946;2023-08-30T08:15:11;101499.50;;;17.93;87.50
51468;BME280;37545;45.302;-122.946;2023-08-30T08:17:39;101508.97;;;17.82;88.61
51468;BME280;37545;45.302;-122.946;2023-08-30T08:20:08;101506.22;;;17.72;88.51
51468;BME280;37545;45.302;-122.946;2023-08-30T08:22:39;101497.47;;;17.69;88.89
51468;BME280;37545;45.302;-122.946;2023-08-30T08:25:08;101491.34;;;17.70;88.09
51468;BME280;37545;45.302;-122.946;2023-08-30T08:27:37;101505.31;;;17.69;87.19
51468;BME280;37545;45.302;-122.946;2023-08-30T08:30:08;101492.22;;;17.70;89.12
51468;BME280;37545;45.302;-122.946;2023-08-30T08:32:39;101485.25;;;17.69;87.92
51468;BME280;37545;45.302;-122.946;2023-08-30T08:35:08;101490.50;;;17.71;87.63
51468;BME280;37545;45.302;-122.946;2023-08-30T08:37:38;101486.13;;;17.70;87.89
51468;BME280;37545;45.302;-122.946;2023-08-30T08:40:08;101486.97;;;17.67;88.76
51468;BME280;37545;45.302;-122.946;2023-08-30T08:42:42;101482.56;;;17.63;87.45
51468;BME280;37545;45.302;-122.946;2023-08-30T08:45:11;101493.00;;;17.60;88.24
51468;BME280;37545;45.302;-122.946;2023-08-30T08:47:42;101493.00;;;17.60;87.79
51468;BME280;37545;45.302;-122.946;2023-08-30T08:50:11;101493.84;;;17.59;88.12
51468;BME280;37545;45.302;-122.946;2023-08-30T08:52:44;101495.56;;;17.57;89.45
51468;BME280;37545;45.302;-122.946;2023-08-30T08:55:14;101500.72;;;17.51;89.37
51468;BME280;37545;45.302;-122.946;2023-08-30T08:57:44;101500.69;;;17.48;90.01
51468;BME280;37545;45.302;-122.946;2023-08-30T09:00:13;101496.31;;;17.47;89.89
51468;BME280;37545;45.302;-122.946;2023-08-30T09:02:44;101502.41;;;17.46;90.50
51468;BME280;37545;45.302;-122.946;2023-08-30T09:05:14;101502.34;;;17.43;90.59
51468;BME280;37545;45.302;-122.946;2023-08-30T09:07:45;101507.59;;;17.41;90.42
51468;BME280;37545;45.302;-122.946;2023-08-30T09:10:23;101509.31;;;17.42;89.07
51468;BME280;37545;45.302;-122.946;2023-08-30T09:12:52;101506.69;;;17.41;89.80
51468;BME280;37545;45.302;-122.946;2023-08-30T09:15:21;101505.81;;;17.40;89.01
51468;BME280;37545;45.302;-122.946;2023-08-30T09:17:49;101505.81;;;17.38;89.69
51468;BME280;37545;45.302;-122.946;2023-08-30T09:20:21;101511.91;;;17.39;90.20
51468;BME280;37545;45.302;-122.946;2023-08-30T09:22:51;101508.44;;;17.38;89.85
51468;BME280;37545;45.302;-122.946;2023-08-30T09:25:27;101502.28;;;17.38;90.97
51468;BME280;37545;45.302;-122.946;2023-08-30T09:27:59;101499.63;;;17.33;90.16
51468;BME280;37545;45.302;-122.946;2023-08-30T09:30:29;101495.19;;;17.29;90.33
51468;BME280;37545;45.302;-122.946;2023-08-30T09:33:01;101502.19;;;17.30;90.81
51468;BME280;37545;45.302;-122.946;2023-08-30T09:35:30;101503.03;;;17.29;90.75
51468;BME280;37545;45.302;-122.946;2023-08-30T09:38:05;101504.78;;;17.29;91.78
51468;BME280;37545;45.302;-122.946;2023-08-30T09:40:33;101505.66;;;17.29;92.02
51468;BME280;37545;45.302;-122.946;2023-08-30T09:43:02;101510.94;;;17.32;91.99
51468;BME280;37545;45.302;-122.946;2023-08-30T09:45:31;101511.81;;;17.33;92.70
51468;BME280;37545;45.302;-122.946;2023-08-30T09:48:04;101514.47;;;17.34;92.13
51468;BME280;37545;45.302;-122.946;2023-08-30T09:50:34;101512.72;;;17.35;92.35
51468;BME280;37545;45.302;-122.946;2023-08-30T09:53:07;101522.31;;;17.34;92.07
51468;BME280;37545;45.302;-122.946;2023-08-30T09:55:36;101514.47;;;17.34;90.73
51468;BME280;37545;45.302;-122.946;2023-08-30T09:58:07;101514.47;;;17.34;91.10
51468;BME280;37545;45.302;-122.946;2023-08-30T10:00:36;101513.56;;;17.34;91.08
51468;BME280;37545;45.302;-122.946;2023-08-30T10:03:05;101514.41;;;17.31;91.09
51468;BME280;37545;45.302;-122.946;2023-08-30T10:05:34;101525.69;;;17.29;91.09
51468;BME280;37545;45.302;-122.946;2023-08-30T10:08:06;101528.31;;;17.27;90.58
51468;BME280;37545;45.302;-122.946;2023-08-30T10:10:35;101522.19;;;17.25;89.91
51468;BME280;37545;45.302;-122.946;2023-08-30T10:13:05;101517.75;;;17.21;90.77
51468;BME280;37545;45.302;-122.946;2023-08-30T10:15:35;101515.09;;;17.16;90.71
51468;BME280;37545;45.302;-122.946;2023-08-30T10:18:07;101523.69;;;17.11;91.99
51468;BME280;37545;45.302;-122.946;2023-08-30T10:20:36;101525.41;;;17.07;92.34
51468;BME280;37545;45.302;-122.946;2023-08-30T10:23:07;101527.94;;;17.03;93.06
51468;BME280;37545;45.302;-122.946;2023-08-30T10:25:37;101534.00;;;17.02;93.29
51468;BME280;37545;45.302;-122.946;2023-08-30T10:28:06;101535.75;;;17.00;93.06
51468;BME280;37545;45.302;-122.946;2023-08-30T10:30:44;101526.16;;;17.02;93.80
51468;BME280;37545;45.302;-122.946;2023-08-30T10:33:13;101529.66;;;17.01;94.42
51468;BME280;37545;45.302;-122.946;2023-08-30T10:35:53;101529.66;;;17.01;95.15
51468;BME280;37545;45.302;-122.946;2023-08-30T10:38:33;101531.38;;;16.99;94.89
51468;BME280;37545;45.302;-122.946;2023-08-30T10:41:08;101527.03;;;17.01;95.82
51468;BME280;37545;45.302;-122.946;2023-08-30T10:43:38;101531.41;;;17.02;96.06
51468;BME280;37545;45.302;-122.946;2023-08-30T10:46:08;101525.25;;;16.98;96.43
51468;BME280;37545;45.302;-122.946;2023-08-30T10:48:38;101524.44;;;17.01;95.68
51468;BME280;37545;45.302;-122.946;2023-08-30T10:51:20;101529.69;;;17.04;95.53
51468;BME280;37545;45.302;-122.946;2023-08-30T10:54:00;101526.25;;;17.05;95.56
51468;BME280;37545;45.302;-122.946;2023-08-30T10:56:31;101525.41;;;17.07;95.47
51468;BME280;37545;45.302;-122.946;2023-08-30T10:59:02;101526.31;;;17.11;95.26
51468;BME280;37545;45.302;-122.946;2023-08-30T11:01:31;101528.13;;;17.15;94.73
51468;BME280;37545;45.302;-122.946;2023-08-30T11:04:00;101522.97;;;17.18;94.21
51468;BME280;37545;45.302;-122.946;2023-08-30T11:06:29;101523.81;;;17.19;94.47
51468;BME280;37545;45.302;-122.946;2023-08-30T11:09:00;101527.31;;;17.19;94.83
51468;BME280;37545;45.302;-122.946;2023-08-30T11:11:30;101529.06;;;17.20;94.29
51468;BME280;37545;45.302;-122.946;2023-08-30T11:14:04;101526.38;;;17.15;94.72
51468;BME280;37545;45.302;-122.946;2023-08-30T11:16:33;101522.03;;;17.14;95.05
51468;BME280;37545;45.302;-122.946;2023-08-30T11:19:03;101520.28;;;17.15;94.98
51468;BME280;37545;45.302;-122.946;2023-08-30T11:21:33;101523.78;;;17.17;94.19
51468;BME280;37545;45.302;-122.946;2023-08-30T11:24:03;101515.97;;;17.20;95.36
51468;BME280;37545;45.302;-122.946;2023-08-30T11:26:32;101525.53;;;17.16;95.38
51468;BME280;37545;45.302;-122.946;2023-08-30T11:29:07;101527.22;;;17.13;95.52
51468;BME280;37545;45.302;-122.946;2023-08-30T11:31:36;101512.38;;;17.09;94.97
51468;BME280;37545;45.302;-122.946;2023-08-30T11:34:04;101518.41;;;17.05;96.10
51468;BME280;37545;45.302;-122.946;2023-08-30T11:36:35;101523.59;;;17.03;95.53
51468;BME280;37545;45.302;-122.946;2023-08-30T11:39:07;101511.44;;;17.05;95.50
51468;BME280;37545;45.302;-122.946;2023-08-30T11:41:44;101518.38;;;17.03;95.53
51468;BME280;37545;45.302;-122.946;2023-08-30T11:44:13;101513.09;;;17.02;95.66
51468;BME280;37545;45.302;-122.946;2023-08-30T11:46:45;101520.94;;;17.00;95.37
51468;BME280;37545;45.302;-122.946;2023-08-30T11:49:14;101520.94;;;17.00;94.94
51468;BME280;37545;45.302;-122.946;2023-08-30T11:51:43;101520.03;;;16.98;95.55
51468;BME280;37545;45.302;-122.946;2023-08-30T11:54:13;101518.25;;;16.95;96.62
51468;BME280;37545;45.302;-122.946;2023-08-30T11:56:47;101521.72;;;16.94;96.92
51468;BME280;37545;45.302;-122.946;2023-08-30T11:59:20;101520.84;;;16.94;95.43
51468;BME280;37545;45.302;-122.946;2023-08-30T12:01:49;101516.50;;;16.96;95.01
51468;BME280;37545;45.302;-122.946;2023-08-30T12:04:17;101521.78;;;16.98;94.81
51468;BME280;37545;45.302;-122.946;2023-08-30T12:06:51;101513.94;;;16.98;94.97
51468;BME280;37545;45.302;-122.946;2023-08-30T12:09:22;101507.81;;;16.97;94.72
51468;BME280;37545;45.302;-122.946;2023-08-30T12:11:51;101506.94;;;16.96;95.11
51468;BME280;37545;45.302;-122.946;2023-08-30T12:14:19;101508.72;;;16.98;95.05
51468;BME280;37545;45.302;-122.946;2023-08-30T12:16:50;101508.72;;;16.98;94.97
51468;BME280;37545;45.302;-122.946;2023-08-30T12:19:19;101507.81;;;16.97;94.67
51468;BME280;37545;45.302;-122.946;2023-08-30T12:21:48;101501.69;;;16.95;94.86
51468;BME280;37545;45.302;-122.946;2023-08-30T12:24:16;101489.38;;;16.86;94.87
51468;BME280;37545;45.302;-122.946;2023-08-30T12:26:46;101505.94;;;16.90;94.17
51468;BME280;37545;45.302;-122.946;2023-08-30T12:29:19;101499.81;;;16.86;94.93
51468;BME280;37545;45.302;-122.946;2023-08-30T12:31:48;101506.75;;;16.86;94.00
51468;BME280;37545;45.302;-122.946;2023-08-30T12:34:16;101505.88;;;16.84;94.70
51468;BME280;37545;45.302;-122.946;2023-08-30T12:36:45;101512.81;;;16.83;95.07